sensor_id;sensor_type;location;lat;lon;timestamp;pressure;altitude;pressure_sealevel;temperature;humidity
39275;BME280;24980;48.874;2.332;2023-04-06T00:01:23;101346.81;;;21.46;48.51
39275;BME280;24980;48.874;2.332;2023-04-06T00:03:53;101347.01;;;21.44;48.51
39275;BME280;24980;48.874;2.332;2023-04-06T00:06:24;101343.45;;;21.42;48.51
39275;BME280;24980;48.874;2.332;2023-04-06T00:08:54;101339.85;;;21.41;48.49
39275;BME280;24980;48.874;2.332;2023-04-06T00:11:24;101341.11;;;21.40;48.48
39275;BME280;24980;48.874;2.332;2023-04-06T00:13:54;101340.62;;;21.38;48.47
39275;BME280;24980;48.874;2.332;2023-04-06T00:16:25;101344.23;;;21.37;48.46
39275;BME280;24980;48.874;2.332;2023-04-06T00:18:55;101340.30;;;21.35;48.46
39275;BME280;24980;48.874;2.332;2023-04-06T00:21:25;101340.20;;;21.34;48.46
39275;BME280;24980;48.874;2.332;2023-04-06T00:23:55;101336.84;;;21.32;48.46
39275;BME280;24980;48.874;2.332;2023-04-06T00:26:33;101336.76;;;21.31;48.46
39275;BME280;24980;48.874;2.332;2023-04-06T00:31:36;101331.88;;;21.28;48.50
39275;BME280;24980;48.874;2.332;2023-04-06T00:33:58;101329.86;;;21.28;48.52
39275;BME280;24980;48.874;2.332;2023-04-06T00:36:27;101329.77;;;21.28;48.55
39275;BME280;24980;48.874;2.332;2023-04-06T00:38:57;101324.70;;;21.27;48.56
39275;BME280;24980;48.874;2.332;2023-04-06T00:41:27;101325.70;;;21.26;48.57
39275;BME280;24980;48.874;2.332;2023-04-06T00:43:57;101326.21;;;21.26;48.58
39275;BME280;24980;48.874;2.332;2023-04-06T00:46:28;101324.38;;;21.24;48.59
39275;BME280;24980;48.874;2.332;2023-04-06T00:48:58;101316.11;;;21.23;48.60
39275;BME280;24980;48.874;2.332;2023-04-06T00:51:28;101310.98;;;21.21;48.61
39275;BME280;24980;48.874;2.332;2023-04-06T00:53:58;101306.43;;;21.20;48.62
39275;BME280;24980;48.874;2.332;2023-04-06T00:56:31;101308.78;;;21.20;48.63
39275;BME280;24980;48.874;2.332;2023-04-06T00:58:59;101304.73;;;21.19;48.65
39275;BME280;24980;48.874;2.332;2023-04-06T01:01:29;101303.33;;;21.19;48.66
39275;BME280;24980;48.874;2.332;2023-04-06T01:03:59;101299.11;;;21.18;48.68
39275;BME280;24980;48.874;2.332;2023-04-06T01:06:43;101298.27;;;21.18;48.74
39275;BME280;24980;48.874;2.332;2023-04-06T01:09:04;101291.27;;;21.17;48.81
39275;BME280;24980;48.874;2.332;2023-04-06T01:11:31;101292.19;;;21.17;48.85
39275;BME280;24980;48.874;2.332;2023-04-06T01:14:03;101290.16;;;21.16;48.87
39275;BME280;24980;48.874;2.332;2023-04-06T01:16:33;101286.14;;;21.16;48.88
39275;BME280;24980;48.874;2.332;2023-04-06T01:19:10;101291.20;;;21.15;48.89
39275;BME280;24980;48.874;2.332;2023-04-06T01:21:34;101293.21;;;21.14;48.90
39275;BME280;24980;48.874;2.332;2023-04-06T01:24:05;101290.42;;;21.13;48.92
39275;BME280;24980;48.874;2.332;2023-04-06T01:26:36;101288.59;;;21.12;48.92
39275;BME280;24980;48.874;2.332;2023-04-06T01:29:04;101288.42;;;21.11;48.93
39275;BME280;24980;48.874;2.332;2023-04-06T01:31:35;101286.81;;;21.11;48.94
39275;BME280;24980;48.874;2.332;2023-04-06T01:34:06;101288.66;;;21.10;49.00
39275;BME280;24980;48.874;2.332;2023-04-06T01:36:55;101287.14;;;21.10;49.03
39275;BME280;24980;48.874;2.332;2023-04-06T01:39:06;101281.78;;;21.09;49.02
39275;BME280;24980;48.874;2.332;2023-04-06T01:41:41;101278.70;;;21.08;49.00
39275;BME280;24980;48.874;2.332;2023-04-06T01:44:07;101278.02;;;21.07;48.99
39275;BME280;24980;48.874;2.332;2023-04-06T01:46:37;101270.21;;;21.06;49.00
39275;BME280;24980;48.874;2.332;2023-04-06T01:49:07;101271.48;;;21.06;49.04
39275;BME280;24980;48.874;2.332;2023-04-06T01:51:37;101267.34;;;21.05;49.07
39275;BME280;24980;48.874;2.332;2023-04-06T01:54:08;101264.55;;;21.04;49.08
39275;BME280;24980;48.874;2.332;2023-04-06T01:56:38;101258.98;;;21.03;49.08
39275;BME280;24980;48.874;2.332;2023-04-06T01:59:08;101255.89;;;21.03;49.08
39275;BME280;24980;48.874;2.332;2023-04-06T02:01:39;101256.73;;;21.02;49.08
39275;BME280;24980;48.874;2.332;2023-04-06T02:04:09;101268.94;;;21.01;49.08
39275;BME280;24980;48.874;2.332;2023-04-06T02:06:39;101268.94;;;21.00;49.08
39275;BME280;24980;48.874;2.332;2023-04-06T02:09:10;101267.70;;;20.99;49.07
39275;BME280;24980;48.874;2.332;2023-04-06T02:11:41;101265.75;;;20.98;49.07
39275;BME280;24980;48.874;2.332;2023-04-06T02:14:10;101263.98;;;20.98;49.08
39275;BME280;24980;48.874;2.332;2023-04-06T02:16:40;101260.94;;;20.97;49.08
39275;BME280;24980;48.874;2.332;2023-04-06T02:19:13;101257.42;;;20.96;49.09
39275;BME280;24980;48.874;2.332;2023-04-06T02:21:42;101255.81;;;20.95;49.09
39275;BME280;24980;48.874;2.332;2023-04-06T02:24:12;101255.47;;;20.94;49.10
39275;BME280;24980;48.874;2.332;2023-04-06T02:26:42;101247.23;;;20.92;49.10
39275;BME280;24980;48.874;2.332;2023-04-06T02:29:12;101236.36;;;20.91;49.12
39275;BME280;24980;48.874;2.332;2023-04-06T02:31:43;101237.88;;;20.91;49.13
39275;BME280;24980;48.874;2.332;2023-04-06T02:34:13;101234.08;;;20.90;49.14
39275;BME280;24980;48.874;2.332;2023-04-06T02:36:46;101233.17;;;20.90;49.19
39275;BME280;24980;48.874;2.332;2023-04-06T02:39:19;101229.63;;;20.89;49.24
39275;BME280;24980;48.874;2.332;2023-04-06T02:41:44;101223.90;;;20.89;49.31
39275;BME280;24980;48.874;2.332;2023-04-06T02:44:16;101221.12;;;20.88;49.36
39275;BME280;24980;48.874;2.332;2023-04-06T02:46:45;101219.69;;;20.89;49.41
39275;BME280;24980;48.874;2.332;2023-04-06T02:49:15;101214.62;;;20.88;49.42
39275;BME280;24980;48.874;2.332;2023-04-06T02:51:45;101215.66;;;20.86;49.42
39275;BME280;24980;48.874;2.332;2023-04-06T02:54:15;101219.38;;;20.84;49.42
39275;BME280;24980;48.874;2.332;2023-04-06T02:56:47;101222.32;;;20.82;49.43
39275;BME280;24980;48.874;2.332;2023-04-06T02:59:16;101234.10;;;20.81;49.44
39275;BME280;24980;48.874;2.332;2023-04-06T03:01:47;101241.70;;;20.80;49.46
39275;BME280;24980;48.874;2.332;2023-04-06T03:04:17;101240.35;;;20.79;49.50
39275;BME280;24980;48.874;2.332;2023-04-06T03:06:50;101232.84;;;20.77;49.50
39275;BME280;24980;48.874;2.332;2023-04-06T03:09:17;101235.56;;;20.76;49.49
39275;BME280;24980;48.874;2.332;2023-04-06T03:11:48;101241.95;;;20.75;49.50
39275;BME280;24980;48.874;2.332;2023-04-06T03:14:18;101244.06;;;20.75;49.51
39275;BME280;24980;48.874;2.332;2023-04-06T03:16:48;101233.36;;;20.74;49.58
39275;BME280;24980;48.874;2.332;2023-04-06T03:19:20;101223.52;;;20.73;49.52
39275;BME280;24980;48.874;2.332;2023-04-06T03:21:49;101223.52;;;20.72;49.53
39275;BME280;24980;48.874;2.332;2023-04-06T03:24:19;101227.08;;;20.71;49.53
39275;BME280;24980;48.874;2.332;2023-04-06T03:26:49;101224.30;;;20.70;49.53
39275;BME280;24980;48.874;2.332;2023-04-06T03:29:20;101230.52;;;20.68;49.54
39275;BME280;24980;48.874;2.332;2023-04-06T03:31:50;101230.19;;;20.67;49.54
39275;BME280;24980;48.874;2.332;2023-04-06T03:34:20;101234.06;;;20.66;49.54
39275;BME280;24980;48.874;2.332;2023-04-06T03:36:51;101229.42;;;20.65;49.55
39275;BME280;24980;48.874;2.332;2023-04-06T03:39:21;101232.22;;;20.64;49.56
39275;BME280;24980;48.874;2.332;2023-04-06T03:41:52;101226.16;;;20.63;49.58
39275;BME280;24980;48.874;2.332;2023-04-06T03:44:25;101216.47;;;20.63;49.59
39275;BME280;24980;48.874;2.332;2023-04-06T03:46:52;101207.87;;;20.62;49.60
39275;BME280;24980;48.874;2.332;2023-04-06T03:49:22;101213.50;;;20.61;49.64
39275;BME280;24980;48.874;2.332;2023-04-06T03:51:53;101214.62;;;20.61;49.69
39275;BME280;24980;48.874;2.332;2023-04-06T03:54:23;101216.64;;;20.60;49.74
39275;BME280;24980;48.874;2.332;2023-04-06T03:56:55;101217.81;;;20.59;49.76
39275;BME280;24980;48.874;2.332;2023-04-06T03:59:24;101212.02;;;20.57;49.81
39275;BME280;24980;48.874;2.332;2023-04-06T04:01:56;101209.66;;;20.57;49.84
39275;BME280;24980;48.874;2.332;2023-04-06T04:04:25;101214.12;;;20.58;49.86
39275;BME280;24980;48.874;2.332;2023-04-06T04:06:59;101216.73;;;20.57;49.87
39275;BME280;24980;48.874;2.332;2023-04-06T04:09:27;101218.84;;;20.57;49.88
39275;BME280;24980;48.874;2.332;2023-04-06T04:11:57;101219.92;;;20.55;49.88
39275;BME280;24980;48.874;2.332;2023-04-06T04:14:27;101216.46;;;20.55;49.89
39275;BME280;24980;48.874;2.332;2023-04-06T04:16:57;101215.56;;;20.54;49.93
39275;BME280;24980;48.874;2.332;2023-04-06T04:19:28;101219.44;;;20.54;49.94
39275;BME280;24980;48.874;2.332;2023-04-06T04:21:58;101218.08;;;20.53;49.95
39275;BME280;24980;48.874;2.332;2023-04-06T04:24:28;101211.42;;;20.53;49.95
39275;BME280;24980;48.874;2.332;2023-04-06T04:26:59;101200.84;;;20.52;49.93
39275;BME280;24980;48.874;2.332;2023-04-06T04:29:28;101199.23;;;20.51;49.93
39275;BME280;24980;48.874;2.332;2023-04-06T04:31:59;101197.11;;;20.49;49.94
39275;BME280;24980;48.874;2.332;2023-04-06T04:34:40;101202.08;;;20.49;49.94
39275;BME280;24980;48.874;2.332;2023-04-06T04:37:00;101207.83;;;20.48;49.96
39275;BME280;24980;48.874;2.332;2023-04-06T04:39:31;101212.38;;;20.48;50.00
39275;BME280;24980;48.874;2.332;2023-04-06T04:44:31;101205.80;;;20.47;50.06
39275;BME280;24980;48.874;2.332;2023-04-06T04:47:01;101206.80;;;20.46;50.10
39275;BME280;24980;48.874;2.332;2023-04-06T04:49:31;101206.04;;;20.46;50.13
39275;BME280;24980;48.874;2.332;2023-04-06T04:52:03;101208.56;;;20.45;50.15
39275;BME280;24980;48.874;2.332;2023-04-06T04:54:32;101210.27;;;20.45;50.16
39275;BME280;24980;48.874;2.332;2023-04-06T04:57:02;101212.45;;;20.43;50.18
39275;BME280;24980;48.874;2.332;2023-04-06T04:59:34;101221.04;;;20.43;50.18
39275;BME280;24980;48.874;2.332;2023-04-06T05:02:07;101221.06;;;20.42;50.18
39275;BME280;24980;48.874;2.332;2023-04-06T05:04:34;101229.28;;;20.42;50.19
39275;BME280;24980;48.874;2.332;2023-04-06T05:07:07;101225.51;;;20.41;50.20
39275;BME280;24980;48.874;2.332;2023-04-06T05:09:36;101228.61;;;20.40;50.21
39275;BME280;24980;48.874;2.332;2023-04-06T05:12:05;101232.82;;;20.39;50.22
39275;BME280;24980;48.874;2.332;2023-04-06T05:14:41;101235.45;;;20.39;50.24
39275;BME280;24980;48.874;2.332;2023-04-06T05:17:05;101236.62;;;20.38;50.25
39275;BME280;24980;48.874;2.332;2023-04-06T05:19:35;101237.05;;;20.37;50.26
39275;BME280;24980;48.874;2.332;2023-04-06T05:22:06;101241.08;;;20.37;50.29
39275;BME280;24980;48.874;2.332;2023-04-06T05:24:36;101237.12;;;20.37;50.31
39275;BME280;24980;48.874;2.332;2023-04-06T05:27:07;101242.16;;;20.36;50.34
39275;BME280;24980;48.874;2.332;2023-04-06T05:29:36;101239.30;;;20.36;50.40
39275;BME280;24980;48.874;2.332;2023-04-06T05:32:07;101239.49;;;20.35;50.46
39275;BME280;24980;48.874;2.332;2023-04-06T05:34:37;101237.39;;;20.35;50.53
39275;BME280;24980;48.874;2.332;2023-04-06T05:37:07;101238.40;;;20.35;50.58
39275;BME280;24980;48.874;2.332;2023-04-06T05:39:37;101238.91;;;20.35;50.66
39275;BME280;24980;48.874;2.332;2023-04-06T05:42:07;101239.16;;;20.35;50.73
39275;BME280;24980;48.874;2.332;2023-04-06T05:44:38;101249.76;;;20.35;50.77
39275;BME280;24980;48.874;2.332;2023-04-06T05:49:40;101246.73;;;20.35;50.82
39275;BME280;24980;48.874;2.332;2023-04-06T05:52:11;101240.16;;;20.34;50.81
39275;BME280;24980;48.874;2.332;2023-04-06T05:54:45;101240.31;;;20.33;50.78
39275;BME280;24980;48.874;2.332;2023-04-06T05:57:10;101246.48;;;20.32;50.76
39275;BME280;24980;48.874;2.332;2023-04-06T05:59:40;101246.73;;;20.32;50.75
39275;BME280;24980;48.874;2.332;2023-04-06T06:02:11;101247.14;;;20.30;50.74
39275;BME280;24980;48.874;2.332;2023-04-06T06:04:42;101248.56;;;20.30;50.72
39275;BME280;24980;48.874;2.332;2023-04-06T06:07:12;101248.59;;;20.29;50.71
39275;BME280;24980;48.874;2.332;2023-04-06T06:09:43;101244.70;;;20.27;50.69
39275;BME280;24980;48.874;2.332;2023-04-06T06:12:13;101244.83;;;20.26;50.69
39275;BME280;24980;48.874;2.332;2023-04-06T06:14:43;101244.68;;;20.25;50.69
39275;BME280;24980;48.874;2.332;2023-04-06T06:17:13;101244.84;;;20.24;50.68
39275;BME280;24980;48.874;2.332;2023-04-06T06:19:43;101240.89;;;20.22;50.69
39275;BME280;24980;48.874;2.332;2023-04-06T06:22:14;101240.64;;;20.22;50.71
39275;BME280;24980;48.874;2.332;2023-04-06T06:24:44;101237.52;;;20.21;50.72
39275;BME280;24980;48.874;2.332;2023-04-06T06:27:14;101238.61;;;20.21;50.73
39275;BME280;24980;48.874;2.332;2023-04-06T06:29:45;101235.40;;;20.20;50.72
39275;BME280;24980;48.874;2.332;2023-04-06T06:32:15;101235.77;;;20.19;50.73
39275;BME280;24980;48.874;2.332;2023-04-06T06:34:45;101236.94;;;20.19;50.73
39275;BME280;24980;48.874;2.332;2023-04-06T06:37:15;101233.73;;;20.18;50.73
39275;BME280;24980;48.874;2.332;2023-04-06T06:39:46;101232.63;;;20.18;50.74
39275;BME280;24980;48.874;2.332;2023-04-06T06:42:16;101234.14;;;20.17;50.75
39275;BME280;24980;48.874;2.332;2023-04-06T06:44:47;101236.66;;;20.17;50.76
39275;BME280;24980;48.874;2.332;2023-04-06T06:47:17;101237.87;;;20.16;50.79
39275;BME280;24980;48.874;2.332;2023-04-06T06:49:47;101237.19;;;20.16;50.81
39275;BME280;24980;48.874;2.332;2023-04-06T06:52:18;101235.84;;;20.16;50.84
39275;BME280;24980;48.874;2.332;2023-04-06T06:54:48;101236.01;;;20.16;50.88
39275;BME280;24980;48.874;2.332;2023-04-06T06:57:20;101228.69;;;20.16;50.91
39275;BME280;24980;48.874;2.332;2023-04-06T06:59:49;101228.02;;;20.15;50.95
39275;BME280;24980;48.874;2.332;2023-04-06T07:02:20;101228.09;;;20.15;51.00
39275;BME280;24980;48.874;2.332;2023-04-06T07:04:50;101226.41;;;20.15;51.04
39275;BME280;24980;48.874;2.332;2023-04-06T07:07:21;101231.80;;;20.15;51.09
39275;BME280;24980;48.874;2.332;2023-04-06T07:09:54;101231.03;;;20.15;51.13
39275;BME280;24980;48.874;2.332;2023-04-06T07:12:22;101231.28;;;20.15;51.17
39275;BME280;24980;48.874;2.332;2023-04-06T07:14:53;101232.38;;;20.15;51.21
39275;BME280;24980;48.874;2.332;2023-04-06T07:17:22;101224.30;;;20.14;51.24
39275;BME280;24980;48.874;2.332;2023-04-06T07:19:52;101225.31;;;20.14;51.26
39275;BME280;24980;48.874;2.332;2023-04-06T07:22:25;101224.38;;;20.15;51.26
39275;BME280;24980;48.874;2.332;2023-04-06T07:24:53;101223.72;;;20.16;51.29
39275;BME280;24980;48.874;2.332;2023-04-06T07:27:29;101226.67;;;20.16;51.29
39275;BME280;24980;48.874;2.332;2023-04-06T07:29:54;101230.01;;;20.16;51.29
39275;BME280;24980;48.874;2.332;2023-04-06T07:32:24;101226.48;;;20.17;51.29
39275;BME280;24980;48.874;2.332;2023-04-06T07:34:56;101222.78;;;20.17;51.27
39275;BME280;24980;48.874;2.332;2023-04-06T07:37:25;101226.23;;;20.17;51.25
39275;BME280;24980;48.874;2.332;2023-04-06T07:39:56;101228.67;;;20.17;51.25
39275;BME280;24980;48.874;2.332;2023-04-06T07:42:26;101232.47;;;20.18;51.25
39275;BME280;24980;48.874;2.332;2023-04-06T07:44:57;101231.97;;;20.18;51.23
39275;BME280;24980;48.874;2.332;2023-04-06T07:47:32;101232.03;;;20.20;51.25
39275;BME280;24980;48.874;2.332;2023-04-06T07:50:05;101234.73;;;20.20;51.27
39275;BME280;24980;48.874;2.332;2023-04-06T07:52:28;101226.98;;;20.20;51.28
39275;BME280;24980;48.874;2.332;2023-04-06T07:54:59;101227.24;;;20.21;51.30
39275;BME280;24980;48.874;2.332;2023-04-06T07:57:30;101233.98;;;20.21;51.33
39275;BME280;24980;48.874;2.332;2023-04-06T08:00:00;101232.80;;;20.21;51.36
39275;BME280;24980;48.874;2.332;2023-04-06T08:02:36;101229.09;;;20.21;51.40
39275;BME280;24980;48.874;2.332;2023-04-06T08:05:05;101232.62;;;20.20;51.46
39275;BME280;24980;48.874;2.332;2023-04-06T08:07:33;101228.02;;;20.19;51.55
39275;BME280;24980;48.874;2.332;2023-04-06T08:10:03;101227.77;;;20.19;51.62
39275;BME280;24980;48.874;2.332;2023-04-06T08:12:34;101227.25;;;20.19;51.69
39275;BME280;24980;48.874;2.332;2023-04-06T08:15:04;101231.28;;;20.17;51.73
39275;BME280;24980;48.874;2.332;2023-04-06T08:17:35;101227.58;;;20.17;51.78
39275;BME280;24980;48.874;2.332;2023-04-06T08:20:06;101227.68;;;20.16;51.81
39275;BME280;24980;48.874;2.332;2023-04-06T08:22:37;101222.55;;;20.16;51.85
39275;BME280;24980;48.874;2.332;2023-04-06T08:25:07;101229.19;;;20.15;51.90
39275;BME280;24980;48.874;2.332;2023-04-06T08:27:39;101230.45;;;20.15;51.94
39275;BME280;24980;48.874;2.332;2023-04-06T08:30:19;101233.55;;;20.14;51.95
39275;BME280;24980;48.874;2.332;2023-04-06T08:32:44;101234.81;;;20.14;51.95
39275;BME280;24980;48.874;2.332;2023-04-06T08:35:09;101231.94;;;20.13;51.95
39275;BME280;24980;48.874;2.332;2023-04-06T08:37:39;101232.39;;;20.12;51.96
39275;BME280;24980;48.874;2.332;2023-04-06T08:40:10;101239.88;;;20.13;51.97
39275;BME280;24980;48.874;2.332;2023-04-06T08:42:44;101236.50;;;20.11;51.96
39275;BME280;24980;48.874;2.332;2023-04-06T08:45:11;101241.71;;;20.11;51.97
39275;BME280;24980;48.874;2.332;2023-04-06T08:47:42;101247.43;;;20.10;51.96
39275;BME280;24980;48.874;2.332;2023-04-06T08:50:14;101256.55;;;20.10;51.97
39275;BME280;24980;48.874;2.332;2023-04-06T08:52:45;101266.30;;;20.09;52.00
39275;BME280;24980;48.874;2.332;2023-04-06T08:55:13;101262.84;;;20.08;52.06
39275;BME280;24980;48.874;2.332;2023-04-06T08:57:46;101260.14;;;20.08;52.09
39275;BME280;24980;48.874;2.332;2023-04-06T09:02:51;101271.84;;;20.08;52.18
39275;BME280;24980;48.874;2.332;2023-04-06T09:05:29;101261.39;;;20.07;52.20
39275;BME280;24980;48.874;2.332;2023-04-06T09:07:45;101253.23;;;20.07;52.21
39275;BME280;24980;48.874;2.332;2023-04-06T09:10:16;101244.25;;;20.06;52.19
39275;BME280;24980;48.874;2.332;2023-04-06T09:12:46;101244.73;;;20.05;52.15
39275;BME280;24980;48.874;2.332;2023-04-06T09:15:20;101255.76;;;20.04;52.11
39275;BME280;24980;48.874;2.332;2023-04-06T09:17:46;101261.33;;;20.03;52.07
39275;BME280;24980;48.874;2.332;2023-04-06T09:20:24;101268.47;;;20.02;52.05
39275;BME280;24980;48.874;2.332;2023-04-06T09:22:46;101265.45;;;20.00;52.03
39275;BME280;24980;48.874;2.332;2023-04-06T09:25:21;101269.13;;;19.98;51.99
39275;BME280;24980;48.874;2.332;2023-04-06T09:27:47;101270.83;;;19.97;51.97
39275;BME280;24980;48.874;2.332;2023-04-06T09:30:17;101269.06;;;19.97;51.92
39275;BME280;24980;48.874;2.332;2023-04-06T09:32:53;101266.84;;;19.95;51.89
39275;BME280;24980;48.874;2.332;2023-04-06T09:35:19;101262.50;;;19.94;51.85
39275;BME280;24980;48.874;2.332;2023-04-06T09:37:50;101265.69;;;19.94;51.83
39275;BME280;24980;48.874;2.332;2023-04-06T09:40:19;101266.35;;;19.93;51.81
39275;BME280;24980;48.874;2.332;2023-04-06T09:42:50;101266.27;;;19.92;51.78
39275;BME280;24980;48.874;2.332;2023-04-06T09:45:20;101259.52;;;19.91;51.76
39275;BME280;24980;48.874;2.332;2023-04-06T09:47:51;101258.42;;;19.91;51.75
39275;BME280;24980;48.874;2.332;2023-04-06T09:50:22;101260.12;;;19.90;51.74
39275;BME280;24980;48.874;2.332;2023-04-06T09:52:54;101262.81;;;19.90;51.72
39275;BME280;24980;48.874;2.332;2023-04-06T09:55:51;101268.27;;;19.89;51.71
39275;BME280;24980;48.874;2.332;2023-04-06T09:57:59;101275.66;;;19.88;51.71
39275;BME280;24980;48.874;2.332;2023-04-06T10:00:25;101282.50;;;19.87;51.70
39275;BME280;24980;48.874;2.332;2023-04-06T10:05:38;101285.77;;;19.86;51.70
39275;BME280;24980;48.874;2.332;2023-04-06T10:07:57;101281.89;;;19.85;51.73
39275;BME280;24980;48.874;2.332;2023-04-06T10:10:24;101285.34;;;19.85;51.79
39275;BME280;24980;48.874;2.332;2023-04-06T10:12:55;101283.08;;;19.86;51.82
39275;BME280;24980;48.874;2.332;2023-04-06T10:15:25;101280.12;;;19.85;51.82
39275;BME280;24980;48.874;2.332;2023-04-06T10:17:56;101268.92;;;19.84;51.83
39275;BME280;24980;48.874;2.332;2023-04-06T10:20:31;101266.67;;;19.83;51.82
39275;BME280;24980;48.874;2.332;2023-04-06T10:23:15;101268.43;;;19.82;51.82
39275;BME280;24980;48.874;2.332;2023-04-06T10:25:30;101280.79;;;19.82;51.82
39275;BME280;24980;48.874;2.332;2023-04-06T10:28:08;101272.88;;;19.81;51.81
39275;BME280;24980;48.874;2.332;2023-04-06T10:30:28;101275.40;;;19.82;51.80
39275;BME280;24980;48.874;2.332;2023-04-06T10:33:00;101273.88;;;19.81;51.80
39275;BME280;24980;48.874;2.332;2023-04-06T10:35:37;101282.91;;;19.81;51.80
39275;BME280;24980;48.874;2.332;2023-04-06T10:38:03;101277.84;;;19.79;51.79
39275;BME280;24980;48.874;2.332;2023-04-06T10:40:35;101281.45;;;19.79;51.79
39275;BME280;24980;48.874;2.332;2023-04-06T10:43:08;101281.87;;;19.78;51.78
39275;BME280;24980;48.874;2.332;2023-04-06T10:45:32;101287.25;;;19.79;51.79
39275;BME280;24980;48.874;2.332;2023-04-06T10:48:17;101280.80;;;19.78;51.79
39275;BME280;24980;48.874;2.332;2023-04-06T10:50:35;101281.95;;;19.78;51.79
39275;BME280;24980;48.874;2.332;2023-04-06T10:53:04;101280.80;;;19.78;51.78
39275;BME280;24980;48.874;2.332;2023-04-06T10:55:57;101279.84;;;19.78;51.79
39275;BME280;24980;48.874;2.332;2023-04-06T10:58:06;101285.17;;;19.78;51.79
39275;BME280;24980;48.874;2.332;2023-04-06T11:00:35;101279.53;;;19.77;51.79
39275;BME280;24980;48.874;2.332;2023-04-06T11:03:05;101278.52;;;19.77;51.79
39275;BME280;24980;48.874;2.332;2023-04-06T11:05:35;101279.94;;;19.77;51.79
39275;BME280;24980;48.874;2.332;2023-04-06T11:08:05;101279.61;;;19.77;51.79
39275;BME280;24980;48.874;2.332;2023-04-06T11:10:35;101281.29;;;19.77;51.79
39275;BME280;24980;48.874;2.332;2023-04-06T11:13:06;101275.89;;;19.76;51.80
39275;BME280;24980;48.874;2.332;2023-04-06T11:15:38;101278.33;;;19.75;51.81
39275;BME280;24980;48.874;2.332;2023-04-06T11:18:07;101280.09;;;19.75;51.83
39275;BME280;24980;48.874;2.332;2023-04-06T11:20:37;101270.51;;;19.76;51.88
39275;BME280;24980;48.874;2.332;2023-04-06T11:23:07;101272.78;;;19.76;51.89
39275;BME280;24980;48.874;2.332;2023-04-06T11:25:49;101272.45;;;19.76;51.90
39275;BME280;24980;48.874;2.332;2023-04-06T11:28:07;101268.58;;;19.76;51.91
39275;BME280;24980;48.874;2.332;2023-04-06T11:30:38;101262.80;;;19.77;51.91
39275;BME280;24980;48.874;2.332;2023-04-06T11:33:08;101261.26;;;19.78;51.90
39275;BME280;24980;48.874;2.332;2023-04-06T11:35:38;101260.09;;;19.79;51.88
39275;BME280;24980;48.874;2.332;2023-04-06T11:38:08;101249.14;;;19.78;51.88
39275;BME280;24980;48.874;2.332;2023-04-06T11:40:38;101236.80;;;19.79;51.87
39275;BME280;24980;48.874;2.332;2023-04-06T11:43:11;101230.73;;;19.78;51.87
39275;BME280;24980;48.874;2.332;2023-04-06T11:45:41;101225.95;;;19.79;51.86
39275;BME280;24980;48.874;2.332;2023-04-06T11:48:19;101221.67;;;19.83;51.85
39275;BME280;24980;48.874;2.332;2023-04-06T11:50:40;101223.34;;;19.85;51.83
39275;BME280;24980;48.874;2.332;2023-04-06T11:53:14;101217.88;;;19.86;51.82
39275;BME280;24980;48.874;2.332;2023-04-06T11:55:40;101225.88;;;19.86;51.83
39275;BME280;24980;48.874;2.332;2023-04-06T11:58:10;101213.11;;;19.87;51.82
39275;BME280;24980;48.874;2.332;2023-04-06T12:00:40;101215.04;;;19.87;51.82
39275;BME280;24980;48.874;2.332;2023-04-06T12:03:11;101217.30;;;19.86;51.82
39275;BME280;24980;48.874;2.332;2023-04-06T12:05:41;101223.53;;;19.86;51.83
39275;BME280;24980;48.874;2.332;2023-04-06T12:08:11;101209.55;;;19.87;51.82
39275;BME280;24980;48.874;2.332;2023-04-06T12:10:41;101212.84;;;19.89;51.82
39275;BME280;24980;48.874;2.332;2023-04-06T12:13:12;101205.95;;;19.93;51.83
39275;BME280;24980;48.874;2.332;2023-04-06T12:15:42;101203.59;;;19.98;51.83
39275;BME280;24980;48.874;2.332;2023-04-06T12:18:12;101205.04;;;20.03;51.86
39275;BME280;24980;48.874;2.332;2023-04-06T12:20:42;101194.08;;;20.04;51.89
39275;BME280;24980;48.874;2.332;2023-04-06T12:23:12;101198.47;;;20.02;51.93
39275;BME280;24980;48.874;2.332;2023-04-06T12:25:42;101196.70;;;19.99;51.95
39275;BME280;24980;48.874;2.332;2023-04-06T12:28:17;101194.69;;;19.97;51.96
39275;BME280;24980;48.874;2.332;2023-04-06T12:33:16;101199.71;;;19.94;51.91
39275;BME280;24980;48.874;2.332;2023-04-06T12:35:44;101202.84;;;19.96;51.87
39275;BME280;24980;48.874;2.332;2023-04-06T12:38:14;101205.09;;;19.97;51.84
39275;BME280;24980;48.874;2.332;2023-04-06T12:40:44;101200.84;;;19.97;51.84
39275;BME280;24980;48.874;2.332;2023-04-06T12:43:14;101206.38;;;19.96;51.85
39275;BME280;24980;48.874;2.332;2023-04-06T12:45:44;101201.91;;;19.95;51.86
39275;BME280;24980;48.874;2.332;2023-04-06T12:48:14;101201.98;;;19.94;51.87
39275;BME280;24980;48.874;2.332;2023-04-06T12:50:44;101198.72;;;19.93;51.89
39275;BME280;24980;48.874;2.332;2023-04-06T12:53:14;101194.34;;;19.93;51.91
39275;BME280;24980;48.874;2.332;2023-04-06T12:55:44;101188.88;;;19.92;51.93
39275;BME280;24980;48.874;2.332;2023-04-06T12:58:14;101190.39;;;19.93;51.95
39275;BME280;24980;48.874;2.332;2023-04-06T13:00:46;101196.78;;;19.92;51.98
39275;BME280;24980;48.874;2.332;2023-04-06T13:03:15;101194.34;;;19.92;52.02
39275;BME280;24980;48.874;2.332;2023-04-06T13:05:50;101196.53;;;19.92;52.05
39275;BME280;24980;48.874;2.332;2023-04-06T13:08:18;101189.55;;;19.93;52.13
39275;BME280;24980;48.874;2.332;2023-04-06T13:10:47;101182.80;;;19.94;52.23
39275;BME280;24980;48.874;2.332;2023-04-06T13:13:21;101183.82;;;19.95;52.34
39275;BME280;24980;48.874;2.332;2023-04-06T13:15:50;101183.84;;;19.97;52.46
39275;BME280;24980;48.874;2.332;2023-04-06T13:18:18;101182.50;;;19.97;52.53
39275;BME280;24980;48.874;2.332;2023-04-06T13:20:49;101181.47;;;19.98;52.59